sensor_id;sensor_type;location;lat;lon;timestamp;pressure;altitude;pressure_sealevel;temperature;humidity
79671;BME280;69137;50.878;8.050;2023-09-19T00:00:30;97676.66;;;15.10;89.99
79671;BME280;69137;50.878;8.050;2023-09-19T00:02:57;97676.66;;;15.10;89.35
79671;BME280;69137;50.878;8.050;2023-09-19T00:05:25;97678.41;;;15.05;90.46
79671;BME280;69137;50.878;8.050;2023-09-19T00:07:53;97681.03;;;15.11;89.29
79671;BME280;69137;50.878;8.050;2023-09-19T00:10:23;97683.25;;;15.00;89.73
79671;BME280;69137;50.878;8.050;2023-09-19T00:12:53;97685.16;;;14.99;89.74
79671;BME280;69137;50.878;8.050;2023-09-19T00:15:24;97687.53;;;14.92;89.59
79671;BME280;69137;50.878;8.050;2023-09-19T00:17:51;97695.09;;;14.87;89.76
79671;BME280;69137;50.878;8.050;2023-09-19T00:20:18;97686.84;;;14.87;90.14
79671;BME280;69137;50.878;8.050;2023-09-19T00:22:44;97688.88;;;14.81;90.67
79671;BME280;69137;50.878;8.050;2023-09-19T00:25:10;97701.94;;;14.75;90.56
79671;BME280;69137;50.878;8.050;2023-09-19T00:27:38;97705.31;;;14.72;90.36
79671;BME280;69137;50.878;8.050;2023-09-19T00:30:09;97705.84;;;14.74;90.15
79671;BME280;69137;50.878;8.050;2023-09-19T00:32:50;97710.72;;;14.77;90.27
79671;BME280;69137;50.878;8.050;2023-09-19T00:35:22;97715.13;;;14.64;90.48
79671;BME280;69137;50.878;8.050;2023-09-19T00:37:51;97711.22;;;14.66;90.08
79671;BME280;69137;50.878;8.050;2023-09-19T00:40:17;97705.56;;;14.62;88.88
79671;BME280;69137;50.878;8.050;2023-09-19T00:42:44;97713.00;;;14.61;89.35
79671;BME280;69137;50.878;8.050;2023-09-19T00:45:11;97715.28;;;14.68;87.66
79671;BME280;69137;50.878;8.050;2023-09-19T00:47:42;97717.06;;;14.64;88.93
79671;BME280;69137;50.878;8.050;2023-09-19T00:50:10;97714.94;;;14.61;88.41
79671;BME280;69137;50.878;8.050;2023-09-19T00:52:38;97719.28;;;14.48;88.42
79671;BME280;69137;50.878;8.050;2023-09-19T00:55:06;97718.91;;;14.55;88.39
79671;BME280;69137;50.878;8.050;2023-09-19T00:57:33;97719.50;;;14.38;87.53
79671;BME280;69137;50.878;8.050;2023-09-19T01:00:00;97722.56;;;14.36;87.71
79671;BME280;69137;50.878;8.050;2023-09-19T01:02:31;97726.44;;;14.35;88.71
79671;BME280;69137;50.878;8.050;2023-09-19T01:04:58;97727.75;;;14.38;87.40
79671;BME280;69137;50.878;8.050;2023-09-19T01:07:23;97725.22;;;14.28;87.57
79671;BME280;69137;50.878;8.050;2023-09-19T01:09:49;97731.53;;;14.28;86.55
79671;BME280;69137;50.878;8.050;2023-09-19T01:12:17;97724.00;;;14.20;87.03
79671;BME280;69137;50.878;8.050;2023-09-19T01:14:59;97731.63;;;14.09;87.68
79671;BME280;69137;50.878;8.050;2023-09-19T01:17:34;97736.81;;;14.11;88.07
79671;BME280;69137;50.878;8.050;2023-09-19T01:28:52;97743.00;;;14.03;87.45
79671;BME280;69137;50.878;8.050;2023-09-19T01:31:19;97750.06;;;14.09;86.87
79671;BME280;69137;50.878;8.050;2023-09-19T01:34:00;97745.97;;;14.06;87.52
79671;BME280;69137;50.878;8.050;2023-09-19T01:36:33;97747.69;;;14.02;87.30
79671;BME280;69137;50.878;8.050;2023-09-19T01:39:13;97752.69;;;14.00;86.67
79671;BME280;69137;50.878;8.050;2023-09-19T01:42:03;97747.19;;;14.00;86.70
79671;BME280;69137;50.878;8.050;2023-09-19T01:47:33;97760.72;;;13.96;87.39
79671;BME280;69137;50.878;8.050;2023-09-19T01:52:37;97756.22;;;13.87;87.31
79671;BME280;69137;50.878;8.050;2023-09-19T01:55:09;97755.31;;;13.91;86.41
79671;BME280;69137;50.878;8.050;2023-09-19T01:57:45;97760.81;;;13.91;87.44
79671;BME280;69137;50.878;8.050;2023-09-19T02:00:16;97767.91;;;13.92;87.97
79671;BME280;69137;50.878;8.050;2023-09-19T02:02:47;97762.44;;;13.92;87.60
79671;BME280;69137;50.878;8.050;2023-09-19T02:05:22;97767.13;;;13.92;86.22
79671;BME280;69137;50.878;8.050;2023-09-19T02:07:49;97759.06;;;13.95;86.57
79671;BME280;69137;50.878;8.050;2023-09-19T02:10:14;97762.75;;;14.05;86.01
79671;BME280;69137;50.878;8.050;2023-09-19T02:12:39;97765.09;;;13.97;86.32
79671;BME280;69137;50.878;8.050;2023-09-19T02:15:05;97775.44;;;14.01;86.10
79671;BME280;69137;50.878;8.050;2023-09-19T02:17:32;97757.16;;;13.96;85.90
79671;BME280;69137;50.878;8.050;2023-09-19T02:19:57;97771.91;;;14.00;85.89
79671;BME280;69137;50.878;8.050;2023-09-19T02:22:24;97774.25;;;14.07;86.56
79671;BME280;69137;50.878;8.050;2023-09-19T02:24:50;97774.34;;;14.02;86.70
79671;BME280;69137;50.878;8.050;2023-09-19T02:27:16;97779.53;;;14.03;86.15
79671;BME280;69137;50.878;8.050;2023-09-19T02:29:42;97782.69;;;13.96;85.85
79671;BME280;69137;50.878;8.050;2023-09-19T02:32:07;97778.44;;;14.04;85.84
79671;BME280;69137;50.878;8.050;2023-09-19T02:34:35;97779.84;;;14.02;85.71
79671;BME280;69137;50.878;8.050;2023-09-19T02:37:03;97781.59;;;14.11;84.95
79671;BME280;69137;50.878;8.050;2023-09-19T02:39:30;97787.38;;;14.10;84.77
79671;BME280;69137;50.878;8.050;2023-09-19T02:41:56;97788.28;;;14.05;85.44
79671;BME280;69137;50.878;8.050;2023-09-19T02:44:21;97780.84;;;14.06;84.70
79671;BME280;69137;50.878;8.050;2023-09-19T02:46:49;97786.97;;;14.03;85.45
79671;BME280;69137;50.878;8.050;2023-09-19T02:49:15;97786.16;;;14.02;85.26
79671;BME280;69137;50.878;8.050;2023-09-19T02:51:40;97791.13;;;14.00;85.31
79671;BME280;69137;50.878;8.050;2023-09-19T02:54:06;97784.63;;;13.96;85.46
79671;BME280;69137;50.878;8.050;2023-09-19T02:56:32;97802.00;;;13.91;85.83
79671;BME280;69137;50.878;8.050;2023-09-19T02:58:57;97794.47;;;13.83;86.95
79671;BME280;69137;50.878;8.050;2023-09-19T03:01:23;97793.16;;;13.94;86.15
79671;BME280;69137;50.878;8.050;2023-09-19T03:03:49;97793.44;;;13.93;85.68
79671;BME280;69137;50.878;8.050;2023-09-19T03:06:15;97797.94;;;14.03;85.32
79671;BME280;69137;50.878;8.050;2023-09-19T03:08:41;97792.63;;;13.92;84.89
79671;BME280;69137;50.878;8.050;2023-09-19T03:11:10;97801.00;;;14.01;84.59
79671;BME280;69137;50.878;8.050;2023-09-19T03:13:38;97807.81;;;14.04;83.78
79671;BME280;69137;50.878;8.050;2023-09-19T03:16:05;97803.31;;;13.94;84.24
79671;BME280;69137;50.878;8.050;2023-09-19T03:18:32;97807.88;;;13.85;85.69
79671;BME280;69137;50.878;8.050;2023-09-19T03:20:58;97808.38;;;13.87;85.38
79671;BME280;69137;50.878;8.050;2023-09-19T03:23:28;97806.34;;;13.92;84.27
79671;BME280;69137;50.878;8.050;2023-09-19T03:25:54;97803.09;;;13.90;84.92
79671;BME280;69137;50.878;8.050;2023-09-19T03:28:21;97820.88;;;13.79;85.35
79671;BME280;69137;50.878;8.050;2023-09-19T03:30:58;97813.06;;;13.86;83.99
79671;BME280;69137;50.878;8.050;2023-09-19T03:33:25;97814.16;;;13.85;84.02
79671;BME280;69137;50.878;8.050;2023-09-19T03:35:53;97827.09;;;13.85;85.08
79671;BME280;69137;50.878;8.050;2023-09-19T03:38:20;97824.75;;;13.78;84.44
79671;BME280;69137;50.878;8.050;2023-09-19T03:40:47;97822.28;;;13.76;83.30
79671;BME280;69137;50.878;8.050;2023-09-19T03:43:12;97821.13;;;13.64;82.89
79671;BME280;69137;50.878;8.050;2023-09-19T03:45:38;97824.41;;;13.66;83.11
79671;BME280;69137;50.878;8.050;2023-09-19T03:48:08;97828.56;;;13.63;83.36
79671;BME280;69137;50.878;8.050;2023-09-19T03:50:34;97836.59;;;13.60;82.79
79671;BME280;69137;50.878;8.050;2023-09-19T03:53:00;97831.09;;;13.60;83.45
79671;BME280;69137;50.878;8.050;2023-09-19T03:55:25;97831.47;;;13.53;84.03
79671;BME280;69137;50.878;8.050;2023-09-19T03:57:50;97836.25;;;13.61;83.68
79671;BME280;69137;50.878;8.050;2023-09-19T04:00:16;97835.78;;;13.40;83.78
79671;BME280;69137;50.878;8.050;2023-09-19T04:02:46;97829.69;;;13.43;83.83
79671;BME280;69137;50.878;8.050;2023-09-19T04:05:11;97840.16;;;13.41;83.16
79671;BME280;69137;50.878;8.050;2023-09-19T04:07:37;97839.13;;;13.37;83.24
79671;BME280;69137;50.878;8.050;2023-09-19T04:10:03;97838.84;;;13.39;82.32
79671;BME280;69137;50.878;8.050;2023-09-19T04:12:29;97836.53;;;13.27;83.66
79671;BME280;69137;50.878;8.050;2023-09-19T04:14:54;97832.13;;;13.26;83.14
79671;BME280;69137;50.878;8.050;2023-09-19T04:17:19;97832.97;;;13.26;83.41
79671;BME280;69137;50.878;8.050;2023-09-19T04:19:45;97836.25;;;13.28;83.67
79671;BME280;69137;50.878;8.050;2023-09-19T04:22:11;97841.72;;;13.28;83.64
79671;BME280;69137;50.878;8.050;2023-09-19T04:24:38;97837.56;;;13.31;83.49
79671;BME280;69137;50.878;8.050;2023-09-19T04:27:04;97842.53;;;13.29;83.74
79671;BME280;69137;50.878;8.050;2023-09-19T04:29:30;97840.72;;;13.19;83.53
79671;BME280;69137;50.878;8.050;2023-09-19T04:31:56;97837.91;;;13.05;83.87
79671;BME280;69137;50.878;8.050;2023-09-19T04:34:24;97842.00;;;13.08;84.61
79671;BME280;69137;50.878;8.050;2023-09-19T04:36:50;97847.16;;;13.09;84.31
79671;BME280;69137;50.878;8.050;2023-09-19T04:39:16;97845.53;;;13.08;84.71
79671;BME280;69137;50.878;8.050;2023-09-19T04:41:42;97853.16;;;13.11;84.20
79671;BME280;69137;50.878;8.050;2023-09-19T04:44:11;97851.25;;;13.12;84.10
79671;BME280;69137;50.878;8.050;2023-09-19T04:46:36;97849.84;;;13.15;84.40
79671;BME280;69137;50.878;8.050;2023-09-19T04:49:02;97853.91;;;13.17;83.50
79671;BME280;69137;50.878;8.050;2023-09-19T04:51:28;97847.31;;;12.99;84.62
79671;BME280;69137;50.878;8.050;2023-09-19T04:53:58;97852.16;;;13.07;83.93
79671;BME280;69137;50.878;8.050;2023-09-19T04:56:23;97847.81;;;13.01;84.71
79671;BME280;69137;50.878;8.050;2023-09-19T04:58:49;97844.19;;;13.06;84.06
79671;BME280;69137;50.878;8.050;2023-09-19T05:01:14;97844.66;;;13.13;83.61
79671;BME280;69137;50.878;8.050;2023-09-19T05:03:40;97839.53;;;13.06;84.02
79671;BME280;69137;50.878;8.050;2023-09-19T05:06:06;97848.34;;;12.84;84.85
79671;BME280;69137;50.878;8.050;2023-09-19T05:08:31;97847.31;;;12.99;84.93
79671;BME280;69137;50.878;8.050;2023-09-19T05:10:57;97846.81;;;12.97;84.60
79671;BME280;69137;50.878;8.050;2023-09-19T05:13:22;97851.09;;;13.03;84.40
79671;BME280;69137;50.878;8.050;2023-09-19T05:15:49;97853.91;;;12.98;84.44
79671;BME280;69137;50.878;8.050;2023-09-19T05:18:18;97858.06;;;12.96;84.29
79671;BME280;69137;50.878;8.050;2023-09-19T05:20:43;97857.84;;;12.92;84.55
79671;BME280;69137;50.878;8.050;2023-09-19T05:23:09;97868.75;;;12.97;85.23
79671;BME280;69137;50.878;8.050;2023-09-19T05:25:37;97862.78;;;12.90;84.77
79671;BME280;69137;50.878;8.050;2023-09-19T05:28:03;97863.75;;;12.99;84.66
79671;BME280;69137;50.878;8.050;2023-09-19T05:30:31;97866.88;;;12.93;84.71
79671;BME280;69137;50.878;8.050;2023-09-19T05:32:56;97868.66;;;13.02;83.83
79671;BME280;69137;50.878;8.050;2023-09-19T05:35:22;97873.50;;;13.10;84.47
79671;BME280;69137;50.878;8.050;2023-09-19T05:37:51;97871.91;;;13.04;83.82
79671;BME280;69137;50.878;8.050;2023-09-19T05:40:17;97877.63;;;13.08;83.71
79671;BME280;69137;50.878;8.050;2023-09-19T05:42:43;97883.66;;;13.10;84.05
79671;BME280;69137;50.878;8.050;2023-09-19T05:45:09;97880.97;;;13.05;83.79
79671;BME280;69137;50.878;8.050;2023-09-19T05:47:38;97876.00;;;13.07;83.03
79671;BME280;69137;50.878;8.050;2023-09-19T05:50:03;97883.41;;;13.06;82.69
79671;BME280;69137;50.878;8.050;2023-09-19T05:52:30;97890.75;;;12.92;84.26
79671;BME280;69137;50.878;8.050;2023-09-19T05:54:55;97897.44;;;12.81;84.27
79671;BME280;69137;50.878;8.050;2023-09-19T05:57:21;97901.97;;;12.90;83.95
79671;BME280;69137;50.878;8.050;2023-09-19T05:59:47;97898.31;;;13.00;83.14
79671;BME280;69137;50.878;8.050;2023-09-19T06:02:15;97905.72;;;13.00;83.05
79671;BME280;69137;50.878;8.050;2023-09-19T06:04:40;97913.88;;;13.05;82.99
79671;BME280;69137;50.878;8.050;2023-09-19T06:07:06;97914.81;;;12.95;84.07
79671;BME280;69137;50.878;8.050;2023-09-19T06:09:32;97921.66;;;12.98;82.91
79671;BME280;69137;50.878;8.050;2023-09-19T06:11:58;97922.97;;;13.00;82.94
79671;BME280;69137;50.878;8.050;2023-09-19T06:14:23;97932.56;;;13.03;82.67
79671;BME280;69137;50.878;8.050;2023-09-19T06:16:50;97939.44;;;13.00;82.55
79671;BME280;69137;50.878;8.050;2023-09-19T06:19:15;97942.94;;;13.06;81.92
79671;BME280;69137;50.878;8.050;2023-09-19T06:21:41;97934.41;;;13.07;82.75
79671;BME280;69137;50.878;8.050;2023-09-19T06:24:06;97947.16;;;13.17;81.15
79671;BME280;69137;50.878;8.050;2023-09-19T06:26:32;97948.69;;;13.04;82.02
79671;BME280;69137;50.878;8.050;2023-09-19T06:28:58;97954.56;;;13.17;81.41
79671;BME280;69137;50.878;8.050;2023-09-19T06:31:25;97957.69;;;13.10;80.97
79671;BME280;69137;50.878;8.050;2023-09-19T06:33:52;97952.13;;;13.15;81.01
79671;BME280;69137;50.878;8.050;2023-09-19T06:36:17;97954.31;;;13.18;80.43
79671;BME280;69137;50.878;8.050;2023-09-19T06:38:44;97950.38;;;13.24;80.15
79671;BME280;69137;50.878;8.050;2023-09-19T06:41:10;97954.13;;;13.33;79.45
79671;BME280;69137;50.878;8.050;2023-09-19T06:43:35;97964.50;;;13.37;79.40
79671;BME280;69137;50.878;8.050;2023-09-19T06:46:01;97969.13;;;13.41;78.94
79671;BME280;69137;50.878;8.050;2023-09-19T06:48:27;97979.31;;;13.36;80.74
79671;BME280;69137;50.878;8.050;2023-09-19T06:50:54;97991.28;;;13.45;79.25
79671;BME280;69137;50.878;8.050;2023-09-19T06:53:20;97989.22;;;13.55;79.01
79671;BME280;69137;50.878;8.050;2023-09-19T06:55:46;97988.25;;;13.46;79.18
79671;BME280;69137;50.878;8.050;2023-09-19T06:58:13;97984.00;;;13.35;79.84
79671;BME280;69137;50.878;8.050;2023-09-19T07:00:38;97985.44;;;13.51;80.32
79671;BME280;69137;50.878;8.050;2023-09-19T07:03:07;97995.47;;;13.61;79.09
79671;BME280;69137;50.878;8.050;2023-09-19T07:05:34;97995.09;;;13.68;79.27
79671;BME280;69137;50.878;8.050;2023-09-19T07:08:03;98002.81;;;13.66;79.35
79671;BME280;69137;50.878;8.050;2023-09-19T07:10:29;97998.19;;;13.61;79.57
79671;BME280;69137;50.878;8.050;2023-09-19T07:12:56;98004.44;;;13.67;80.21
79671;BME280;69137;50.878;8.050;2023-09-19T07:15:22;98004.97;;;13.69;78.86
79671;BME280;69137;50.878;8.050;2023-09-19T07:17:50;98014.53;;;13.71;78.74
79671;BME280;69137;50.878;8.050;2023-09-19T07:20:16;98015.59;;;13.75;79.46
79671;BME280;69137;50.878;8.050;2023-09-19T07:22:41;98016.47;;;13.71;77.87
79671;BME280;69137;50.878;8.050;2023-09-19T07:25:07;98018.69;;;13.88;77.58
79671;BME280;69137;50.878;8.050;2023-09-19T07:27:33;98016.78;;;13.88;78.84
79671;BME280;69137;50.878;8.050;2023-09-19T07:29:59;98017.53;;;13.75;77.34
79671;BME280;69137;50.878;8.050;2023-09-19T07:32:24;98015.78;;;13.79;77.81
79671;BME280;69137;50.878;8.050;2023-09-19T07:34:49;98020.63;;;13.87;78.62
79671;BME280;69137;50.878;8.050;2023-09-19T07:37:15;98012.97;;;14.03;76.37
79671;BME280;69137;50.878;8.050;2023-09-19T07:39:41;98011.94;;;14.18;75.69
79671;BME280;69137;50.878;8.050;2023-09-19T07:42:07;98007.31;;;14.32;74.54
79671;BME280;69137;50.878;8.050;2023-09-19T07:44:35;98011.31;;;14.21;74.75
79671;BME280;69137;50.878;8.050;2023-09-19T07:47:02;98006.66;;;14.22;75.60
79671;BME280;69137;50.878;8.050;2023-09-19T07:49:28;98013.19;;;14.26;76.06
79671;BME280;69137;50.878;8.050;2023-09-19T07:51:54;98012.44;;;14.20;77.47
79671;BME280;69137;50.878;8.050;2023-09-19T07:54:20;98010.19;;;14.41;74.84
79671;BME280;69137;50.878;8.050;2023-09-19T07:56:46;98018.88;;;14.48;74.32
79671;BME280;69137;50.878;8.050;2023-09-19T07:59:11;98011.28;;;14.59;73.25
79671;BME280;69137;50.878;8.050;2023-09-19T08:01:37;98012.19;;;14.54;73.12
79671;BME280;69137;50.878;8.050;2023-09-19T08:04:02;98014.38;;;14.52;74.65
79671;BME280;69137;50.878;8.050;2023-09-19T08:06:28;98010.25;;;14.55;73.92
79671;BME280;69137;50.878;8.050;2023-09-19T08:08:55;98020.34;;;14.59;73.83
79671;BME280;69137;50.878;8.050;2023-09-19T08:11:22;98024.72;;;14.60;73.54
79671;BME280;69137;50.878;8.050;2023-09-19T08:13:49;98027.28;;;14.71;72.36
79671;BME280;69137;50.878;8.050;2023-09-19T08:16:15;98024.78;;;14.74;73.53
79671;BME280;69137;50.878;8.050;2023-09-19T08:18:47;98038.34;;;14.84;73.04
79671;BME280;69137;50.878;8.050;2023-09-19T08:21:12;98041.00;;;14.90;71.48
79671;BME280;69137;50.878;8.050;2023-09-19T08:23:39;98029.38;;;14.93;72.34
79671;BME280;69137;50.878;8.050;2023-09-19T08:26:06;98037.22;;;14.99;72.27
79671;BME280;69137;50.878;8.050;2023-09-19T08:28:33;98038.56;;;15.02;71.40
79671;BME280;69137;50.878;8.050;2023-09-19T08:31:05;98029.91;;;14.95;70.80
79671;BME280;69137;50.878;8.050;2023-09-19T08:33:34;98041.53;;;15.05;70.28
79671;BME280;69137;50.878;8.050;2023-09-19T08:36:01;98037.88;;;15.10;71.27
79671;BME280;69137;50.878;8.050;2023-09-19T08:38:30;98043.19;;;15.20;69.90
79671;BME280;69137;50.878;8.050;2023-09-19T08:41:04;98049.59;;;15.29;70.95
79671;BME280;69137;50.878;8.050;2023-09-19T08:43:30;98059.97;;;15.33;70.83
79671;BME280;69137;50.878;8.050;2023-09-19T08:46:09;98044.19;;;15.38;70.31
79671;BME280;69137;50.878;8.050;2023-09-19T08:48:39;98045.94;;;15.34;69.58
79671;BME280;69137;50.878;8.050;2023-09-19T08:51:18;98046.94;;;15.24;70.53
79671;BME280;69137;50.878;8.050;2023-09-19T08:56:17;98046.66;;;15.26;68.57
79671;BME280;69137;50.878;8.050;2023-09-19T08:59:03;98049.41;;;15.26;70.06
79671;BME280;69137;50.878;8.050;2023-09-19T09:01:31;98057.75;;;15.21;68.81
79671;BME280;69137;50.878;8.050;2023-09-19T09:03:57;98054.28;;;15.15;68.81
79671;BME280;69137;50.878;8.050;2023-09-19T09:06:24;98049.69;;;15.24;67.53
79671;BME280;69137;50.878;8.050;2023-09-19T09:08:51;98048.78;;;15.29;69.08
79671;BME280;69137;50.878;8.050;2023-09-19T09:11:17;98056.94;;;15.34;69.06
79671;BME280;69137;50.878;8.050;2023-09-19T09:13:44;98062.13;;;15.36;68.86
79671;BME280;69137;50.878;8.050;2023-09-19T09:16:10;98048.97;;;15.33;68.55
79671;BME280;69137;50.878;8.050;2023-09-19T09:18:36;98059.97;;;15.33;68.45
79671;BME280;69137;50.878;8.050;2023-09-19T09:21:02;98050.28;;;15.07;68.68
79671;BME280;69137;50.878;8.050;2023-09-19T09:23:30;98055.81;;;15.21;68.84
79671;BME280;69137;50.878;8.050;2023-09-19T09:25:57;98051.53;;;15.43;68.63
79671;BME280;69137;50.878;8.050;2023-09-19T09:28:29;98068.25;;;15.60;69.11
79671;BME280;69137;50.878;8.050;2023-09-19T09:30:56;98059.25;;;15.68;67.65
79671;BME280;69137;50.878;8.050;2023-09-19T09:33:24;98059.09;;;15.79;67.64
79671;BME280;69137;50.878;8.050;2023-09-19T09:35:53;98048.13;;;16.01;65.75
79671;BME280;69137;50.878;8.050;2023-09-19T09:38:22;98059.91;;;16.15;65.40
79671;BME280;69137;50.878;8.050;2023-09-19T09:40:54;98059.03;;;16.06;65.91
79671;BME280;69137;50.878;8.050;2023-09-19T09:43:39;98059.78;;;16.21;65.51
79671;BME280;69137;50.878;8.050;2023-09-19T09:46:15;98060.81;;;16.25;65.58
79671;BME280;69137;50.878;8.050;2023-09-19T09:51:45;98065.00;;;16.22;63.82
79671;BME280;69137;50.878;8.050;2023-09-19T09:54:18;98056.66;;;16.13;64.92
79671;BME280;69137;50.878;8.050;2023-09-19T09:56:57;98061.69;;;16.34;64.08
79671;BME280;69137;50.878;8.050;2023-09-19T09:59:55;98062.25;;;16.22;63.90
79671;BME280;69137;50.878;8.050;2023-09-19T10:02:28;98062.75;;;16.47;62.69
79671;BME280;69137;50.878;8.050;2023-09-19T10:04:58;98063.03;;;16.59;64.02
79671;BME280;69137;50.878;8.050;2023-09-19T10:07:31;98053.56;;;16.74;61.72
79671;BME280;69137;50.878;8.050;2023-09-19T10:10:48;98065.09;;;16.76;60.96
79671;BME280;69137;50.878;8.050;2023-09-19T10:13:29;98062.78;;;16.69;60.96
79671;BME280;69137;50.878;8.050;2023-09-19T10:15:56;98051.38;;;16.62;61.12
79671;BME280;69137;50.878;8.050;2023-09-19T10:18:25;98052.59;;;16.33;60.74
79671;BME280;69137;50.878;8.050;2023-09-19T10:20:51;98046.31;;;16.55;62.30
79671;BME280;69137;50.878;8.050;2023-09-19T10:23:18;98052.88;;;16.91;61.99
79671;BME280;69137;50.878;8.050;2023-09-19T10:25:49;98044.31;;;17.01;60.49
79671;BME280;69137;50.878;8.050;2023-09-19T10:28:16;98043.63;;;17.18;61.42
79671;BME280;69137;50.878;8.050;2023-09-19T10:30:48;98037.69;;;17.33;61.12
79671;BME280;69137;50.878;8.050;2023-09-19T10:33:16;98035.09;;;17.06;61.26
79671;BME280;69137;50.878;8.050;2023-09-19T10:35:46;98027.84;;;17.18;60.34
79671;BME280;69137;50.878;8.050;2023-09-19T10:38:14;98030.13;;;17.16;60.41
79671;BME280;69137;50.878;8.050;2023-09-19T10:40:40;98041.19;;;17.25;61.49
79671;BME280;69137;50.878;8.050;2023-09-19T10:43:12;98028.13;;;17.08;62.67
79671;BME280;69137;50.878;8.050;2023-09-19T10:45:38;98024.19;;;17.00;61.63
79671;BME280;69137;50.878;8.050;2023-09-19T10:48:05;98028.31;;;17.12;61.44
79671;BME280;69137;50.878;8.050;2023-09-19T10:51:23;98022.22;;;17.32;59.44
79671;BME280;69137;50.878;8.050;2023-09-19T10:53:39;98024.41;;;17.53;60.16
79671;BME280;69137;50.878;8.050;2023-09-19T10:56:06;98037.97;;;17.32;60.65
79671;BME280;69137;50.878;8.050;2023-09-19T10:58:35;98050.34;;;17.43;60.40
79671;BME280;69137;50.878;8.050;2023-09-19T11:01:04;98039.31;;;17.03;60.86
79671;BME280;69137;50.878;8.050;2023-09-19T11:03:41;98035.13;;;16.83;61.79
79671;BME280;69137;50.878;8.050;2023-09-19T11:06:17;98034.75;;;16.98;60.35
79671;BME280;69137;50.878;8.050;2023-09-19T11:09:04;98034.03;;;17.15;60.48
79671;BME280;69137;50.878;8.050;2023-09-19T11:30:47;98017.06;;;17.48;60.73
79671;BME280;69137;50.878;8.050;2023-09-19T11:46:30;98030.44;;;17.63;57.84
79671;BME280;69137;50.878;8.050;2023-09-19T11:49:05;98037.41;;;17.61;58.85
79671;BME280;69137;50.878;8.050;2023-09-19T11:51:42;98035.31;;;17.66;56.04
79671;BME280;69137;50.878;8.050;2023-09-19T11:54:13;98023.75;;;17.56;56.71
79671;BME280;69137;50.878;8.050;2023-09-19T11:56:51;98023.25;;;17.45;57.78
79671;BME280;69137;50.878;8.050;2023-09-19T11:59:27;98023.28;;;17.54;57.79
79671;BME280;69137;50.878;8.050;2023-09-19T12:02:16;98015.31;;;17.52;58.56
79671;BME280;69137;50.878;8.050;2023-09-19T12:04:46;98020.66;;;17.49;58.90
79671;BME280;69137;50.878;8.050;2023-09-19T12:07:15;98032.03;;;17.56;57.92
79671;BME280;69137;50.878;8.050;2023-09-19T12:09:47;98025.91;;;17.67;57.14
79671;BME280;69137;50.878;8.050;2023-09-19T12:12:24;98025.31;;;17.79;57.61
79671;BME280;69137;50.878;8.050;2023-09-19T12:14:53;98033.97;;;17.95;58.09
79671;BME280;69137;50.878;8.050;2023-09-19T12:17:19;98026.31;;;18.01;59.12
79671;BME280;69137;50.878;8.050;2023-09-19T12:19:53;98034.16;;;18.16;56.71
79671;BME280;69137;50.878;8.050;2023-09-19T12:22:18;98042.59;;;18.11;57.24
79671;BME280;69137;50.878;8.050;2023-09-19T12:24:46;98046.66;;;18.31;55.77
79671;BME280;69137;50.878;8.050;2023-09-19T12:27:12;98031.53;;;18.20;53.82
79671;BME280;69137;50.878;8.050;2023-09-19T12:29:45;98038.03;;;18.06;55.47
79671;BME280;69137;50.878;8.050;2023-09-19T12:32:11;98032.69;;;18.19;54.89
79671;BME280;69137;50.878;8.050;2023-09-19T12:34:36;98023.91;;;18.34;55.84
79671;BME280;69137;50.878;8.050;2023-09-19T12:39:52;98037.53;;;18.13;55.59
79671;BME280;69137;50.878;8.050;2023-09-19T12:42:26;98031.84;;;18.09;55.50
79671;BME280;69137;50.878;8.050;2023-09-19T12:44:58;98029.56;;;18.20;55.37
79671;BME280;69137;50.878;8.050;2023-09-19T12:47:27;98021.13;;;18.43;55.48
79671;BME280;69137;50.878;8.050;2023-09-19T12:50:12;98031.34;;;18.60;54.45
79671;BME280;69137;50.878;8.050;2023-09-19T12:52:46;98037.03;;;18.54;53.70
79671;BME280;69137;50.878;8.050;2023-09-19T12:55:25;98026.00;;;18.37;53.19
79671;BME280;69137;50.878;8.050;2023-09-19T13:00:37;98020.78;;;18.18;52.88
79671;BME280;69137;50.878;8.050;2023-09-19T13:03:26;98021.94;;;18.43;52.87
79671;BME280;69137;50.878;8.050;2023-09-19T13:06:02;98012.50;;;18.53;53.15
79671;BME280;69137;50.878;8.050;2023-09-19T13:08:38;98020.00;;;18.26;53.03
79671;BME280;69137;50.878;8.050;2023-09-19T13:11:22;98012.84;;;18.17;54.45
79671;BME280;69137;50.878;8.050;2023-09-19T13:14:13;98007.47;;;18.20;54.03
79671;BME280;69137;50.878;8.050;2023-09-19T13:17:12;98016.09;;;18.45;54.70
79671;BME280;69137;50.878;8.050;2023-09-19T13:19:51;98006.81;;;18.41;52.38
79671;BME280;69137;50.878;8.050;2023-09-19T13:22:42;97993.75;;;18.59;52.21
79671;BME280;69137;50.878;8.050;2023-09-19T13:25:09;97988.06;;;18.64;52.19
79671;BME280;69137;50.878;8.050;2023-09-19T13:27:50;97986.59;;;18.66;51.97
79671;BME280;69137;50.878;8.050;2023-09-19T13:30:26;97979.44;;;18.65;51.46
79671;BME280;69137;50.878;8.050;2023-09-19T13:33:05;97994.41;;;18.47;51.86
79671;BME280;69137;50.878;8.050;2023-09-19T13:35:32;97988.56;;;18.66;51.60
79671;BME280;69137;50.878;8.050;2023-09-19T13:37:58;97996.06;;;18.39;51.72
79671;BME280;69137;50.878;8.050;2023-09-19T13:40:23;97997.03;;;18.61;53.26
79671;BME280;69137;50.878;8.050;2023-09-19T13:43:00;97988.38;;;18.71;52.99
79671;BME280;69137;50.878;8.050;2023-09-19T13:45:25;97985.75;;;18.83;52.14
79671;BME280;69137;50.878;8.050;2023-09-19T13:47:52;97990.47;;;18.91;51.59
79671;BME280;69137;50.878;8.050;2023-09-19T13:50:18;97987.66;;;19.00;52.25
79671;BME280;69137;50.878;8.050;2023-09-19T13:52:49;97969.31;;;18.78;51.40
79671;BME280;69137;50.878;8.050;2023-09-19T13:55:16;97958.75;;;18.80;51.59
79671;BME280;69137;50.878;8.050;2023-09-19T13:57:45;97956.09;;;18.92;52.40
79671;BME280;69137;50.878;8.050;2023-09-19T14:00:11;97967.63;;;19.03;51.82
79671;BME280;69137;50.878;8.050;2023-09-19T14:02:39;97958.47;;;19.11;51.71
79671;BME280;69137;50.878;8.050;2023-09-19T14:05:05;97955.41;;;19.04;51.96
79671;BME280;69137;50.878;8.050;2023-09-19T14:07:32;97967.47;;;18.99;51.75